Terminal Aerodrome Forecast
Issued by NWS Wilmington, OH

Current Version | Previous Version | Graphics & Text | Print | Product List | Glossary Off
Versions: 1 2 3 4 5 6 7 8 9 10 11 12 13 14 15 16 17 18 19 20 21

000
FTUS41 KILN 251700
TAFILN
TAF
KILN 251731Z 2518/2618 24012G18KT P6SM SCT022
     FM260100 30003KT P6SM SKC
      TEMPO 2607/2611 3SM BR
     FM261300 30006KT P6SM SKC=

USA.gov is the U.S. government's official web portal to all federal, state and local government web resources and services.